sensor_id;sensor_type;location;lat;lon;timestamp;pressure;altitude;pressure_sealevel;temperature;humidity
45255;BME280;30989;52.078;21.014;2023-03-19T00:01:46;165040.22;;;4.92;62.52
45255;BME280;30989;52.078;21.014;2023-03-19T00:04:11;165024.19;;;4.86;62.68
45255;BME280;30989;52.078;21.014;2023-03-19T00:06:37;165005.53;;;4.79;62.90
45255;BME280;30989;52.078;21.014;2023-03-19T00:09:03;165001.53;;;4.77;62.70
45255;BME280;30989;52.078;21.014;2023-03-19T00:11:28;164993.50;;;4.74;62.97
45255;BME280;30989;52.078;21.014;2023-03-19T00:13:54;164985.50;;;4.71;62.67
45255;BME280;30989;52.078;21.014;2023-03-19T00:16:20;164974.84;;;4.67;63.11
45255;BME280;30989;52.078;21.014;2023-03-19T00:18:46;164977.50;;;4.68;63.55
45255;BME280;30989;52.078;21.014;2023-03-19T00:21:12;164968.16;;;4.65;63.44
45255;BME280;30989;52.078;21.014;2023-03-19T00:23:37;164954.81;;;4.60;63.72
45255;BME280;30989;52.078;21.014;2023-03-19T00:26:03;164956.16;;;4.60;63.74
45255;BME280;30989;52.078;21.014;2023-03-19T00:28:29;164946.81;;;4.57;63.61
45255;BME280;30989;52.078;21.014;2023-03-19T00:30:55;164956.16;;;4.60;63.82
45255;BME280;30989;52.078;21.014;2023-03-19T00:33:21;164949.50;;;4.58;64.37
45255;BME280;30989;52.078;21.014;2023-03-19T00:35:46;164942.81;;;4.55;63.67
45255;BME280;30989;52.078;21.014;2023-03-19T00:38:12;164934.81;;;4.52;64.11
45255;BME280;30989;52.078;21.014;2023-03-19T00:40:38;164948.16;;;4.57;64.24
45255;BME280;30989;52.078;21.014;2023-03-19T00:43:03;164920.13;;;4.46;63.92
45255;BME280;30989;52.078;21.014;2023-03-19T00:45:29;164942.81;;;4.55;64.30
45255;BME280;30989;52.078;21.014;2023-03-19T00:47:55;164912.13;;;4.43;64.53
45255;BME280;30989;52.078;21.014;2023-03-19T00:50:21;164932.16;;;4.51;64.73
45255;BME280;30989;52.078;21.014;2023-03-19T00:52:47;164921.47;;;4.47;65.05
45255;BME280;30989;52.078;21.014;2023-03-19T00:55:13;164910.81;;;4.43;64.46
45255;BME280;30989;52.078;21.014;2023-03-19T00:57:38;164913.47;;;4.44;65.09
45255;BME280;30989;52.078;21.014;2023-03-19T01:00:04;164913.47;;;4.44;64.68
45255;BME280;30989;52.078;21.014;2023-03-19T01:02:30;164898.81;;;4.38;65.29
45255;BME280;30989;52.078;21.014;2023-03-19T01:04:56;164905.47;;;4.41;65.13
45255;BME280;30989;52.078;21.014;2023-03-19T01:07:22;164889.47;;;4.35;65.51
45255;BME280;30989;52.078;21.014;2023-03-19T01:09:47;164892.13;;;4.36;65.34
45255;BME280;30989;52.078;21.014;2023-03-19T01:12:13;164889.47;;;4.35;65.25
45255;BME280;30989;52.078;21.014;2023-03-19T01:14:38;164873.47;;;4.29;65.53
45255;BME280;30989;52.078;21.014;2023-03-19T01:17:04;164860.13;;;4.24;65.82
45255;BME280;30989;52.078;21.014;2023-03-19T01:19:31;164837.44;;;4.15;65.87
45255;BME280;30989;52.078;21.014;2023-03-19T01:21:56;164846.78;;;4.18;65.75
45255;BME280;30989;52.078;21.014;2023-03-19T01:24:22;164846.78;;;4.18;66.21
45255;BME280;30989;52.078;21.014;2023-03-19T01:26:51;164846.78;;;4.18;66.35
45255;BME280;30989;52.078;21.014;2023-03-19T01:29:37;164844.13;;;4.17;66.03
45255;BME280;30989;52.078;21.014;2023-03-19T01:32:11;164832.13;;;4.13;66.19
45255;BME280;30989;52.078;21.014;2023-03-19T01:34:45;164829.44;;;4.12;66.49
45255;BME280;30989;52.078;21.014;2023-03-19T01:37:14;164814.78;;;4.06;66.86
45255;BME280;30989;52.078;21.014;2023-03-19T01:39:41;164822.78;;;4.09;67.04
45255;BME280;30989;52.078;21.014;2023-03-19T01:42:10;164809.44;;;4.04;67.10
45255;BME280;30989;52.078;21.014;2023-03-19T01:44:47;164800.09;;;4.01;66.93
45255;BME280;30989;52.078;21.014;2023-03-19T01:47:32;164778.78;;;3.93;67.17
45255;BME280;30989;52.078;21.014;2023-03-19T01:50:22;164792.13;;;3.98;67.32
45255;BME280;30989;52.078;21.014;2023-03-19T01:52:59;164774.78;;;3.91;67.47
45255;BME280;30989;52.078;21.014;2023-03-19T01:55:47;164776.09;;;3.92;67.72
45255;BME280;30989;52.078;21.014;2023-03-19T01:58:43;164761.44;;;3.86;67.28
45255;BME280;30989;52.078;21.014;2023-03-19T02:01:22;164737.44;;;3.77;67.52
45255;BME280;30989;52.078;21.014;2023-03-19T02:03:51;164744.09;;;3.79;68.07
45255;BME280;30989;52.078;21.014;2023-03-19T02:06:23;164746.78;;;3.80;67.81
45255;BME280;30989;52.078;21.014;2023-03-19T02:08:50;164738.78;;;3.77;67.83
45255;BME280;30989;52.078;21.014;2023-03-19T02:11:17;164729.44;;;3.74;68.08
45255;BME280;30989;52.078;21.014;2023-03-19T02:13:43;164721.44;;;3.71;68.41
45255;BME280;30989;52.078;21.014;2023-03-19T02:16:09;164724.09;;;3.72;68.28
45255;BME280;30989;52.078;21.014;2023-03-19T02:18:35;164716.09;;;3.69;68.13
45255;BME280;30989;52.078;21.014;2023-03-19T02:21:09;164718.78;;;3.70;68.36
45255;BME280;30989;52.078;21.014;2023-03-19T02:23:40;164713.44;;;3.68;68.29
45255;BME280;30989;52.078;21.014;2023-03-19T02:26:20;164712.09;;;3.67;68.51
45255;BME280;30989;52.078;21.014;2023-03-19T02:28:50;164709.44;;;3.66;68.62
45255;BME280;30989;52.078;21.014;2023-03-19T02:31:22;164705.44;;;3.65;69.02
45255;BME280;30989;52.078;21.014;2023-03-19T02:34:14;164694.78;;;3.61;68.81
45255;BME280;30989;52.078;21.014;2023-03-19T02:36:57;164694.78;;;3.61;69.02
45255;BME280;30989;52.078;21.014;2023-03-19T02:39:29;164684.13;;;3.56;69.23
45255;BME280;30989;52.078;21.014;2023-03-19T02:41:56;164666.78;;;3.50;69.45
45255;BME280;30989;52.078;21.014;2023-03-19T02:44:25;164665.47;;;3.49;69.25
45255;BME280;30989;52.078;21.014;2023-03-19T02:46:51;164664.13;;;3.49;69.31
45255;BME280;30989;52.078;21.014;2023-03-19T02:49:16;164666.78;;;3.50;69.59
45255;BME280;30989;52.078;21.014;2023-03-19T02:51:43;164660.13;;;3.47;69.69
45255;BME280;30989;52.078;21.014;2023-03-19T02:54:08;164649.47;;;3.43;70.19
45255;BME280;30989;52.078;21.014;2023-03-19T02:56:34;164633.47;;;3.37;70.17
45255;BME280;30989;52.078;21.014;2023-03-19T02:58:59;164624.13;;;3.34;69.87
45255;BME280;30989;52.078;21.014;2023-03-19T03:01:25;164646.78;;;3.42;70.35
45255;BME280;30989;52.078;21.014;2023-03-19T03:03:51;164638.78;;;3.39;70.29
45255;BME280;30989;52.078;21.014;2023-03-19T03:06:16;164641.47;;;3.40;70.38
45255;BME280;30989;52.078;21.014;2023-03-19T03:08:42;164634.78;;;3.38;70.41
45255;BME280;30989;52.078;21.014;2023-03-19T03:11:08;164612.13;;;3.29;70.28
45255;BME280;30989;52.078;21.014;2023-03-19T03:13:34;164612.13;;;3.29;70.60
45255;BME280;30989;52.078;21.014;2023-03-19T03:16:00;164621.47;;;3.33;70.60
45255;BME280;30989;52.078;21.014;2023-03-19T03:18:27;164608.13;;;3.28;70.91
45255;BME280;30989;52.078;21.014;2023-03-19T03:20:52;164609.47;;;3.28;71.04
45255;BME280;30989;52.078;21.014;2023-03-19T03:23:18;164608.13;;;3.28;71.32
45255;BME280;30989;52.078;21.014;2023-03-19T03:25:44;164601.47;;;3.25;71.73
45255;BME280;30989;52.078;21.014;2023-03-19T03:28:12;164597.47;;;3.23;71.05
45255;BME280;30989;52.078;21.014;2023-03-19T03:30:38;164589.47;;;3.20;71.11
45255;BME280;30989;52.078;21.014;2023-03-19T03:33:03;164598.81;;;3.24;71.22
45255;BME280;30989;52.078;21.014;2023-03-19T03:35:29;164598.81;;;3.24;71.59
45255;BME280;30989;52.078;21.014;2023-03-19T03:37:55;164588.16;;;3.20;71.11
45255;BME280;30989;52.078;21.014;2023-03-19T03:40:20;164590.81;;;3.21;71.72
45255;BME280;30989;52.078;21.014;2023-03-19T03:42:46;164554.84;;;3.07;71.60
45255;BME280;30989;52.078;21.014;2023-03-19T03:45:12;164572.16;;;3.14;71.52
45255;BME280;30989;52.078;21.014;2023-03-19T03:47:42;164581.47;;;3.17;71.90
45255;BME280;30989;52.078;21.014;2023-03-19T03:50:08;164580.16;;;3.17;71.60
45255;BME280;30989;52.078;21.014;2023-03-19T03:52:37;164565.50;;;3.11;71.44
45255;BME280;30989;52.078;21.014;2023-03-19T03:55:02;164569.50;;;3.13;71.48
45255;BME280;30989;52.078;21.014;2023-03-19T03:57:28;164561.50;;;3.10;71.78
45255;BME280;30989;52.078;21.014;2023-03-19T03:59:55;164561.50;;;3.10;71.69
45255;BME280;30989;52.078;21.014;2023-03-19T04:02:21;164556.16;;;3.08;71.87
45255;BME280;30989;52.078;21.014;2023-03-19T04:04:47;164548.16;;;3.05;71.98
45255;BME280;30989;52.078;21.014;2023-03-19T04:07:13;164544.16;;;3.03;72.21
45255;BME280;30989;52.078;21.014;2023-03-19T04:09:43;164540.16;;;3.02;72.16
45255;BME280;30989;52.078;21.014;2023-03-19T04:12:08;164540.16;;;3.02;72.04
45255;BME280;30989;52.078;21.014;2023-03-19T04:14:35;164532.19;;;2.99;72.59
45255;BME280;30989;52.078;21.014;2023-03-19T04:17:01;164525.53;;;2.96;72.44
45255;BME280;30989;52.078;21.014;2023-03-19T04:19:26;164517.53;;;2.93;72.48
45255;BME280;30989;52.078;21.014;2023-03-19T04:21:52;164516.19;;;2.92;72.72
45255;BME280;30989;52.078;21.014;2023-03-19T04:24:17;164517.53;;;2.93;72.79
45255;BME280;30989;52.078;21.014;2023-03-19T04:26:43;164509.53;;;2.90;72.90
45255;BME280;30989;52.078;21.014;2023-03-19T04:29:11;164512.19;;;2.91;73.21
45255;BME280;30989;52.078;21.014;2023-03-19T04:31:36;164505.53;;;2.88;73.03
45255;BME280;30989;52.078;21.014;2023-03-19T04:34:02;164508.19;;;2.89;73.01
45255;BME280;30989;52.078;21.014;2023-03-19T04:36:27;164486.88;;;2.81;72.93
45255;BME280;30989;52.078;21.014;2023-03-19T04:38:53;164478.88;;;2.78;73.61
45255;BME280;30989;52.078;21.014;2023-03-19T04:41:19;164444.25;;;2.65;73.90
45255;BME280;30989;52.078;21.014;2023-03-19T04:43:59;164454.91;;;2.69;73.59
45255;BME280;30989;52.078;21.014;2023-03-19T04:46:26;164458.91;;;2.71;73.65
45255;BME280;30989;52.078;21.014;2023-03-19T04:48:52;164456.22;;;2.70;73.66
45255;BME280;30989;52.078;21.014;2023-03-19T04:51:17;164441.56;;;2.64;73.67
45255;BME280;30989;52.078;21.014;2023-03-19T04:53:46;164430.91;;;2.60;73.72
45255;BME280;30989;52.078;21.014;2023-03-19T04:56:12;164425.59;;;2.58;74.54
45255;BME280;30989;52.078;21.014;2023-03-19T04:58:42;164420.25;;;2.56;74.42
45255;BME280;30989;52.078;21.014;2023-03-19T05:01:07;164414.94;;;2.54;74.88
45255;BME280;30989;52.078;21.014;2023-03-19T05:03:55;164401.63;;;2.49;74.85
45255;BME280;30989;52.078;21.014;2023-03-19T05:06:21;164400.28;;;2.48;74.96
45255;BME280;30989;52.078;21.014;2023-03-19T05:08:46;164381.63;;;2.41;74.97
45255;BME280;30989;52.078;21.014;2023-03-19T05:11:15;164377.63;;;2.40;74.83
45255;BME280;30989;52.078;21.014;2023-03-19T05:13:55;164392.28;;;2.45;75.19
45255;BME280;30989;52.078;21.014;2023-03-19T05:16:21;164388.28;;;2.44;75.39
45255;BME280;30989;52.078;21.014;2023-03-19T05:18:47;164381.63;;;2.41;75.92
45255;BME280;30989;52.078;21.014;2023-03-19T05:21:13;164393.63;;;2.46;75.55
45255;BME280;30989;52.078;21.014;2023-03-19T05:23:39;164392.28;;;2.45;75.51
45255;BME280;30989;52.078;21.014;2023-03-19T05:26:08;164390.97;;;2.45;75.90
45255;BME280;30989;52.078;21.014;2023-03-19T05:28:54;164388.28;;;2.44;75.39
45255;BME280;30989;52.078;21.014;2023-03-19T05:31:28;164409.59;;;2.52;75.44
45255;BME280;30989;52.078;21.014;2023-03-19T05:33:53;164420.25;;;2.56;75.91
45255;BME280;30989;52.078;21.014;2023-03-19T05:36:20;164444.25;;;2.65;75.39
45255;BME280;30989;52.078;21.014;2023-03-19T05:39:02;164465.56;;;2.73;75.34
45255;BME280;30989;52.078;21.014;2023-03-19T05:41:32;164501.53;;;2.87;74.77
45255;BME280;30989;52.078;21.014;2023-03-19T05:44:02;164516.19;;;2.92;74.96
45255;BME280;30989;52.078;21.014;2023-03-19T05:46:46;164534.84;;;3.00;74.37
45255;BME280;30989;52.078;21.014;2023-03-19T05:49:13;164526.84;;;2.97;74.46
45255;BME280;30989;52.078;21.014;2023-03-19T05:51:39;164572.16;;;3.14;74.19
45255;BME280;30989;52.078;21.014;2023-03-19T05:54:06;164585.47;;;3.19;73.46
45255;BME280;30989;52.078;21.014;2023-03-19T05:56:39;164609.47;;;3.28;73.37
45255;BME280;30989;52.078;21.014;2023-03-19T05:59:25;164625.47;;;3.34;73.14
45255;BME280;30989;52.078;21.014;2023-03-19T06:02:11;164646.78;;;3.42;72.96
45255;BME280;30989;52.078;21.014;2023-03-19T06:04:40;164666.78;;;3.50;72.79
45255;BME280;30989;52.078;21.014;2023-03-19T06:07:06;164689.44;;;3.59;72.68
45255;BME280;30989;52.078;21.014;2023-03-19T06:09:34;164710.78;;;3.67;72.38
45255;BME280;30989;52.078;21.014;2023-03-19T06:12:00;164748.09;;;3.81;71.96
45255;BME280;30989;52.078;21.014;2023-03-19T06:15:01;164780.09;;;3.93;71.69
45255;BME280;30989;52.078;21.014;2023-03-19T06:17:45;164793.44;;;3.98;71.47
45255;BME280;30989;52.078;21.014;2023-03-19T06:20:14;164826.78;;;4.11;70.83
45255;BME280;30989;52.078;21.014;2023-03-19T06:22:40;164842.78;;;4.17;70.61
45255;BME280;30989;52.078;21.014;2023-03-19T06:25:06;164860.13;;;4.24;70.02
45255;BME280;30989;52.078;21.014;2023-03-19T06:27:35;164886.78;;;4.34;69.75
45255;BME280;30989;52.078;21.014;2023-03-19T06:30:14;164900.13;;;4.39;69.83
45255;BME280;30989;52.078;21.014;2023-03-19T06:32:40;164933.47;;;4.51;69.20
45255;BME280;30989;52.078;21.014;2023-03-19T06:35:09;164957.50;;;4.61;69.10
45255;BME280;30989;52.078;21.014;2023-03-19T06:37:35;164997.50;;;4.76;69.21
45255;BME280;30989;52.078;21.014;2023-03-19T06:40:02;165029.53;;;4.88;69.25
45255;BME280;30989;52.078;21.014;2023-03-19T06:42:29;165066.91;;;5.02;68.33
45255;BME280;30989;52.078;21.014;2023-03-19T06:44:55;165113.66;;;5.20;68.57
45255;BME280;30989;52.078;21.014;2023-03-19T06:47:20;165156.38;;;5.36;67.29
45255;BME280;30989;52.078;21.014;2023-03-19T06:49:45;165217.78;;;5.60;66.97
45255;BME280;30989;52.078;21.014;2023-03-19T06:52:11;165276.50;;;5.82;65.68
45255;BME280;30989;52.078;21.014;2023-03-19T06:54:36;165283.19;;;5.85;66.04
45255;BME280;30989;52.078;21.014;2023-03-19T06:57:02;165383.41;;;6.23;64.68
45255;BME280;30989;52.078;21.014;2023-03-19T06:59:27;165434.16;;;6.42;64.76
45255;BME280;30989;52.078;21.014;2023-03-19T07:01:53;165472.88;;;6.57;63.31
45255;BME280;30989;52.078;21.014;2023-03-19T07:04:18;165519.63;;;6.74;63.30
45255;BME280;30989;52.078;21.014;2023-03-19T07:06:44;165557.03;;;6.89;63.28
45255;BME280;30989;52.078;21.014;2023-03-19T07:09:10;165586.44;;;7.00;62.41
45255;BME280;30989;52.078;21.014;2023-03-19T07:11:36;165599.81;;;7.05;61.95
45255;BME280;30989;52.078;21.014;2023-03-19T07:14:02;165614.50;;;7.10;61.71
45255;BME280;30989;52.078;21.014;2023-03-19T07:16:28;165610.50;;;7.09;61.18
45255;BME280;30989;52.078;21.014;2023-03-19T07:18:53;165609.16;;;7.08;61.36
45255;BME280;30989;52.078;21.014;2023-03-19T07:21:20;165614.50;;;7.10;61.11
45255;BME280;30989;52.078;21.014;2023-03-19T07:23:45;165598.47;;;7.04;61.08
45255;BME280;30989;52.078;21.014;2023-03-19T07:26:11;165613.16;;;7.10;61.10
45255;BME280;30989;52.078;21.014;2023-03-19T07:28:37;165618.50;;;7.12;60.62
45255;BME280;30989;52.078;21.014;2023-03-19T07:31:03;165630.53;;;7.17;60.16
45255;BME280;30989;52.078;21.014;2023-03-19T07:33:28;165651.91;;;7.25;60.29
45255;BME280;30989;52.078;21.014;2023-03-19T07:35:54;165688.00;;;7.38;60.40
45255;BME280;30989;52.078;21.014;2023-03-19T07:38:20;165722.75;;;7.52;60.19
45255;BME280;30989;52.078;21.014;2023-03-19T07:40:45;165762.88;;;7.67;58.71
45255;BME280;30989;52.078;21.014;2023-03-19T07:43:11;165812.31;;;7.86;59.69
45255;BME280;30989;52.078;21.014;2023-03-19T07:45:36;165853.78;;;8.01;59.31
45255;BME280;30989;52.078;21.014;2023-03-19T07:48:01;165912.63;;;8.24;58.85
45255;BME280;30989;52.078;21.014;2023-03-19T07:50:29;165946.09;;;8.36;57.98
45255;BME280;30989;52.078;21.014;2023-03-19T07:52:55;165986.22;;;8.52;57.86
45255;BME280;30989;52.078;21.014;2023-03-19T07:55:22;166006.28;;;8.59;57.97
45255;BME280;30989;52.078;21.014;2023-03-19T07:57:47;166057.13;;;8.79;57.75
45255;BME280;30989;52.078;21.014;2023-03-19T08:00:13;166102.59;;;8.96;58.00
45255;BME280;30989;52.078;21.014;2023-03-19T08:02:39;166137.41;;;9.09;56.06
45255;BME280;30989;52.078;21.014;2023-03-19T08:05:05;166161.47;;;9.18;56.70
45255;BME280;30989;52.078;21.014;2023-03-19T08:07:31;166184.22;;;9.27;56.12
45255;BME280;30989;52.078;21.014;2023-03-19T08:09:56;166220.38;;;9.41;56.21
45255;BME280;30989;52.078;21.014;2023-03-19T08:12:23;166260.50;;;9.56;55.56
45255;BME280;30989;52.078;21.014;2023-03-19T08:14:49;166298.00;;;9.70;56.25
45255;BME280;30989;52.078;21.014;2023-03-19T08:17:15;166346.19;;;9.88;56.83
45255;BME280;30989;52.078;21.014;2023-03-19T08:19:41;166399.75;;;10.09;55.36
45255;BME280;30989;52.078;21.014;2023-03-19T08:22:07;166438.63;;;10.23;54.48
45255;BME280;30989;52.078;21.014;2023-03-19T08:24:33;166457.38;;;10.30;53.22
45255;BME280;30989;52.078;21.014;2023-03-19T08:26:58;166488.22;;;10.42;53.85
45255;BME280;30989;52.078;21.014;2023-03-19T08:29:24;166519.03;;;10.54;53.88
45255;BME280;30989;52.078;21.014;2023-03-19T08:31:53;166565.91;;;10.72;54.62
45255;BME280;30989;52.078;21.014;2023-03-19T08:34:19;166618.16;;;10.91;53.51
45255;BME280;30989;52.078;21.014;2023-03-19T08:36:46;166683.78;;;11.16;53.78
45255;BME280;30989;52.078;21.014;2023-03-19T08:39:12;166732.03;;;11.35;52.78
45255;BME280;30989;52.078;21.014;2023-03-19T08:41:37;166757.50;;;11.44;51.60
45255;BME280;30989;52.078;21.014;2023-03-19T08:44:03;166764.19;;;11.47;52.05
45255;BME280;30989;52.078;21.014;2023-03-19T08:46:29;166817.78;;;11.67;51.66
45255;BME280;30989;52.078;21.014;2023-03-19T08:48:54;166843.25;;;11.77;50.52
45255;BME280;30989;52.078;21.014;2023-03-19T08:51:20;166844.66;;;11.77;51.41
45255;BME280;30989;52.078;21.014;2023-03-19T08:53:48;166836.56;;;11.74;50.52
45255;BME280;30989;52.078;21.014;2023-03-19T08:56:13;166854.03;;;11.81;50.06
45255;BME280;30989;52.078;21.014;2023-03-19T08:58:39;166870.13;;;11.87;49.73
45255;BME280;30989;52.078;21.014;2023-03-19T09:01:08;166882.19;;;11.91;49.43
45255;BME280;30989;52.078;21.014;2023-03-19T09:03:38;166913.00;;;12.03;50.34
45255;BME280;30989;52.078;21.014;2023-03-19T09:06:06;166946.53;;;12.16;50.51
45255;BME280;30989;52.078;21.014;2023-03-19T09:08:33;166989.44;;;12.32;49.26
45255;BME280;30989;52.078;21.014;2023-03-19T09:10:59;167014.91;;;12.42;50.09
45255;BME280;30989;52.078;21.014;2023-03-19T09:13:25;167036.38;;;12.50;48.68
45255;BME280;30989;52.078;21.014;2023-03-19T09:15:51;167060.50;;;12.59;49.17
45255;BME280;30989;52.078;21.014;2023-03-19T09:18:17;167080.63;;;12.67;49.04
45255;BME280;30989;52.078;21.014;2023-03-19T09:20:45;167094.03;;;12.72;48.58
45255;BME280;30989;52.078;21.014;2023-03-19T09:23:10;167099.38;;;12.74;47.78
45255;BME280;30989;52.078;21.014;2023-03-19T09:25:36;167119.50;;;12.81;49.33
45255;BME280;30989;52.078;21.014;2023-03-19T09:28:01;167128.91;;;12.85;48.65
45255;BME280;30989;52.078;21.014;2023-03-19T09:30:27;167147.66;;;12.92;48.23
45255;BME280;30989;52.078;21.014;2023-03-19T09:32:53;167173.16;;;13.02;48.74
45255;BME280;30989;52.078;21.014;2023-03-19T09:35:18;167158.41;;;12.96;47.84
45255;BME280;30989;52.078;21.014;2023-03-19T09:37:44;167162.44;;;12.98;47.15
45255;BME280;30989;52.078;21.014;2023-03-19T09:40:24;167169.13;;;13.00;47.80
45255;BME280;30989;52.078;21.014;2023-03-19T09:45:49;167201.31;;;13.12;46.65
45255;BME280;30989;52.078;21.014;2023-03-19T09:48:18;167214.78;;;13.17;47.29
45255;BME280;30989;52.078;21.014;2023-03-19T09:50:53;167245.66;;;13.29;47.14
45255;BME280;30989;52.078;21.014;2023-03-19T09:56:06;167300.66;;;13.50;46.71
45255;BME280;30989;52.078;21.014;2023-03-19T09:58:35;167320.78;;;13.58;46.97
45255;BME280;30989;52.078;21.014;2023-03-19T10:01:02;167346.28;;;13.67;47.24
45255;BME280;30989;52.078;21.014;2023-03-19T10:17:00;167501.97;;;14.26;43.68
45255;BME280;30989;52.078;21.014;2023-03-19T10:19:38;167596.00;;;14.62;43.33
45255;BME280;30989;52.078;21.014;2023-03-19T10:22:11;167694.03;;;14.99;42.73
45255;BME280;30989;52.078;21.014;2023-03-19T10:24:42;167751.78;;;15.21;41.52
45255;BME280;30989;52.078;21.014;2023-03-19T10:27:16;167779.97;;;15.31;40.25
45255;BME280;30989;52.078;21.014;2023-03-19T10:29:42;167790.72;;;15.35;42.30
45255;BME280;30989;52.078;21.014;2023-03-19T10:32:23;167864.72;;;15.63;40.68
45255;BME280;30989;52.078;21.014;2023-03-19T10:34:52;167905.00;;;15.78;41.99
45255;BME280;30989;52.078;21.014;2023-03-19T10:37:24;167982.94;;;16.08;41.26
45255;BME280;30989;52.078;21.014;2023-03-19T10:39:54;168070.31;;;16.41;39.07
45255;BME280;30989;52.078;21.014;2023-03-19T10:45:27;168025.94;;;16.24;38.77
45255;BME280;30989;52.078;21.014;2023-03-19T10:47:54;168016.53;;;16.21;39.15
45255;BME280;30989;52.078;21.014;2023-03-19T10:55:37;168025.94;;;16.24;39.90
45255;BME280;30989;52.078;21.014;2023-03-19T10:58:07;167934.56;;;15.90;39.80
45255;BME280;30989;52.078;21.014;2023-03-19T11:00:39;167910.38;;;15.81;40.23
45255;BME280;30989;52.078;21.014;2023-03-19T11:03:32;168004.44;;;16.16;41.11
45255;BME280;30989;52.078;21.014;2023-03-19T11:08:38;168199.41;;;16.90;39.40
45255;BME280;30989;52.078;21.014;2023-03-19T11:11:03;168294.84;;;17.26;38.61
45255;BME280;30989;52.078;21.014;2023-03-19T11:13:29;168386.31;;;17.60;38.65
45255;BME280;30989;52.078;21.014;2023-03-19T11:15:59;168448.22;;;17.84;36.23
45255;BME280;30989;52.078;21.014;2023-03-19T11:18:30;168488.59;;;17.99;35.66
45255;BME280;30989;52.078;21.014;2023-03-19T11:20:58;168498.00;;;18.02;37.49
45255;BME280;30989;52.078;21.014;2023-03-19T11:23:30;168510.13;;;18.07;36.57
45255;BME280;30989;52.078;21.014;2023-03-19T11:26:02;168530.28;;;18.15;36.17
45255;BME280;30989;52.078;21.014;2023-03-19T11:28:28;168471.09;;;17.92;34.62
45255;BME280;30989;52.078;21.014;2023-03-19T11:37:03;168222.25;;;16.98;35.65
45255;BME280;30989;52.078;21.014;2023-03-19T11:51:27;168523.56;;;18.12;34.86
45255;BME280;30989;52.078;21.014;2023-03-19T11:56:47;168481.88;;;17.96;33.49
45255;BME280;30989;52.078;21.014;2023-03-19T12:13:38;169345.16;;;21.22;30.97
45255;BME280;30989;52.078;21.014;2023-03-19T12:19:03;169331.66;;;21.17;30.27
45255;BME280;30989;52.078;21.014;2023-03-19T12:24:36;169211.66;;;20.72;31.75
45255;BME280;30989;52.078;21.014;2023-03-19T12:27:24;169178.00;;;20.59;30.58
45255;BME280;30989;52.078;21.014;2023-03-19T12:30:17;169089.03;;;20.25;32.39
45255;BME280;30989;52.078;21.014;2023-03-19T12:35:37;168920.72;;;19.62;31.16
45255;BME280;30989;52.078;21.014;2023-03-19T12:40:40;168833.13;;;19.29;32.32
45255;BME280;30989;52.078;21.014;2023-03-19T12:43:23;168768.53;;;19.05;33.09
45255;BME280;30989;52.078;21.014;2023-03-19T12:45:55;168709.31;;;18.82;32.37
45255;BME280;30989;52.078;21.014;2023-03-19T12:48:30;168562.59;;;18.27;33.58
45255;BME280;30989;52.078;21.014;2023-03-19T12:51:05;168465.72;;;17.90;33.84
45255;BME280;30989;52.078;21.014;2023-03-19T12:54:07;168403.84;;;17.67;34.18
45255;BME280;30989;52.078;21.014;2023-03-19T12:56:51;168340.59;;;17.43;34.38
45255;BME280;30989;52.078;21.014;2023-03-19T12:59:45;168270.66;;;17.17;35.18
45255;BME280;30989;52.078;21.014;2023-03-19T13:05:01;168331.16;;;17.39;36.55
45255;BME280;30989;52.078;21.014;2023-03-19T13:08:10;168367.47;;;17.53;35.25
45255;BME280;30989;52.078;21.014;2023-03-19T13:10:39;168327.13;;;17.38;35.53
45255;BME280;30989;52.078;21.014;2023-03-19T13:16:23;168316.38;;;17.34;35.93
45255;BME280;30989;52.078;21.014;2023-03-19T13:19:20;168456.31;;;17.87;36.01
45255;BME280;30989;52.078;21.014;2023-03-19T13:21:53;168682.41;;;18.72;35.46
45255;BME280;30989;52.078;21.014;2023-03-19T13:24:26;168868.16;;;19.42;32.98
45255;BME280;30989;52.078;21.014;2023-03-19T13:26:53;168984.00;;;19.86;34.41
45255;BME280;30989;52.078;21.014;2023-03-19T13:29:21;169134.88;;;20.43;34.17
45255;BME280;30989;52.078;21.014;2023-03-19T13:31:48;169269.66;;;20.94;32.85
45255;BME280;30989;52.078;21.014;2023-03-19T13:36:45;169207.63;;;20.70;30.89
45255;BME280;30989;52.078;21.014;2023-03-19T13:39:19;169093.06;;;20.27;32.55
45255;BME280;30989;52.078;21.014;2023-03-19T13:46:46;169025.75;;;20.02;32.30
45255;BME280;30989;52.078;21.014;2023-03-19T13:51:38;168946.28;;;19.72;32.42
45255;BME280;30989;52.078;21.014;2023-03-19T13:54:14;168881.63;;;19.47;31.22
45255;BME280;30989;52.078;21.014;2023-03-19T13:59:30;168733.53;;;18.91;32.99
45255;BME280;30989;52.078;21.014;2023-03-19T14:04:50;168537.03;;;18.17;33.86
45255;BME280;30989;52.078;21.014;2023-03-19T14:07:23;168516.84;;;18.10;34.73
45255;BME280;30989;52.078;21.014;2023-03-19T14:12:39;168534.31;;;18.16;34.66
45255;BME280;30989;52.078;21.014;2023-03-19T14:17:38;168663.56;;;18.65;34.05
45255;BME280;30989;52.078;21.014;2023-03-19T14:22:52;168672.97;;;18.68;33.02
45255;BME280;30989;52.078;21.014;2023-03-19T14:25:23;168655.47;;;18.62;33.35
45255;BME280;30989;52.078;21.014;2023-03-19T14:27:59;168663.56;;;18.65;33.60
45255;BME280;30989;52.078;21.014;2023-03-19T14:30:39;168728.16;;;18.89;33.55
45255;BME280;30989;52.078;21.014;2023-03-19T14:33:17;168741.59;;;18.94;32.84
45255;BME280;30989;52.078;21.014;2023-03-19T14:35:45;168716.03;;;18.85;33.01
45255;BME280;30989;52.078;21.014;2023-03-19T14:38:28;168654.13;;;18.61;33.00
45255;BME280;30989;52.078;21.014;2023-03-19T14:40:58;168615.06;;;18.47;34.15
45255;BME280;30989;52.078;21.014;2023-03-19T14:46:32;168436.13;;;17.79;34.25